Flight Track Log - Related Links

Times and Time Zones

All times are in EDT time to prevent confusion due to time zone crossing. See the C-GECT flight status page for this flight to view local times or setup timezone preferences in your user account.

Time Position Orientation Groundspeed Altitude Reporting Facility
EDT Latitude Longitude Course Direction KTS MPH feet Rate Location/Type
Sun 04:29:38 PM 46.3833 -74.8167 226° Southwest 150 173 4,500  Level Montreal Center
Sun 04:30:38 PM 46.3500 -74.8667 226° Southwest 150 173 6,200 1,600 Climbing Montreal Center
Sun 04:31:38 PM 46.3167 -74.9000 215° Southwest 160 184 7,700 1,600 Climbing Montreal Center
Sun 04:32:38 PM 46.2667 -74.9167 193° South 160 184 9,400 1,600 Climbing Montreal Center
Sun 04:33:38 PM 46.2500 -74.9667 244° Southwest 160 184 10,900 1,550 Climbing Montreal Center
Sun 04:34:38 PM 46.2167 -75.0000 215° Southwest 160 184 12,500 1,550 Climbing Montreal Center
Sun 04:35:38 PM 46.1833 -75.0167 199° South 160 184 14,000 1,500 Climbing Montreal Center
Sun 04:36:38 PM 46.1333 -75.0667 215° Southwest 160 184 15,500 1,450 Climbing Montreal Center
Sun 04:37:38 PM 46.1000 -75.1000 215° Southwest 160 184 16,900 1,400 Climbing Montreal Center
Sun 04:38:38 PM 46.0667 -75.1167 199° South 160 184 18,300 1,350 Climbing Montreal Center
Sun 04:39:38 PM 46.0167 -75.1667 215° Southwest 160 184 19,600 1,250 Climbing Montreal Center
Sun 04:40:38 PM 45.9833 -75.2000 215° Southwest 170 196 20,800 1,150 Climbing Montreal Center
Sun 04:41:38 PM 45.9500 -75.2167 199° South 170 196 21,900 1,100 Climbing Montreal Center
Sun 04:42:38 PM 45.9000 -75.2667 215° Southwest 160 184 23,000 1,050 Climbing Montreal Center
Sun 04:43:38 PM 45.8667 -75.3000 215° Southwest 160 184 24,000 500 Climbing Montreal Center
Sun 04:44:38 PM 45.8333 -75.3167 199° South 170 196 24,000  Level Montreal Center
Sun 04:45:38 PM 45.7833 -75.3667 215° Southwest 190 219 24,000  Level Montreal Center
Sun 04:46:38 PM 45.7333 -75.4167 215° Southwest 200 230 24,000  Level Montreal Center
Sun 04:47:38 PM 45.6833 -75.4333 193° South 200 230 24,000  Level Montreal Center
Sun 04:48:38 PM 45.6333 -75.4833 215° Southwest 210 242 24,000  Level Montreal Center
Sun 04:49:38 PM 45.5833 -75.5333 215° Southwest 210 242 24,000  Level Montreal Center
Sun 04:50:38 PM 45.5333 -75.5833 215° Southwest 210 242 24,000  Level Montreal Center
Sun 04:51:38 PM 45.4833 -75.6333 215° Southwest 210 242 24,000  Level Montreal Center
Sun 04:52:38 PM 45.4167 -75.6500 190° South 210 242 24,000  Level Montreal Center
Sun 04:53:38 PM 45.3667 -75.7000 215° Southwest 220 253 24,000  Level Montreal Center
Sun 04:54:38 PM 45.3000 -75.7500 208° Southwest 220 253 24,000  Level Montreal Center
Sun 04:55:38 PM 45.2500 -75.8000 215° Southwest 220 253 24,000  Level Montreal Center
Sun 04:56:38 PM 45.2000 -75.8500 215° Southwest 220 253 24,000  Level Montreal Center
Sun 04:57:38 PM 45.1500 -75.9000 215° Southwest 220 253 24,000  Level Montreal Center
Sun 04:58:38 PM 45.1000 -75.9167 193° South 220 253 24,000  Level Montreal Center
Sun 04:59:38 PM 45.0500 -75.9667 215° Southwest 220 253 24,000  Level Montreal Center
Sun 05:00:38 PM 45.0000 -76.0167 215° Southwest 220 253 24,000  Level Montreal Center
Sun 05:01:38 PM 44.9333 -76.0667 208° Southwest 220 253 24,000  Level Montreal Center
Sun 05:02:38 PM 44.8833 -76.1167 215° Southwest 220 253 24,000  Level Montreal Center
Sun 05:03:38 PM 44.8333 -76.1500 205° Southwest 220 253 24,000  Level Montreal Center
Sun 05:04:38 PM 44.7833 -76.1833 205° Southwest 220 253 24,000  Level Montreal Center
Sun 05:05:38 PM 44.7333 -76.2500 223° Southwest 220 253 24,000  Level Montreal Center
Sun 05:06:38 PM 44.7000 -76.3000 227° Southwest 210 242 24,000  Level Montreal Center
Sun 05:07:38 PM 44.6500 -76.3667 223° Southwest 210 242 24,000  Level Montreal Center
Sun 05:08:38 PM 44.6167 -76.4167 227° Southwest 210 242 24,000  Level Montreal Center
Sun 05:09:07 PM 44.6000 -76.4167 180° South 210 242 24,000  Level Toronto Center
Sun 05:10:07 PM 44.5500 -76.4667 215° Southwest 210 242 24,000  Level Toronto Center
Sun 05:11:06 PM 44.5000 -76.5500 230° Southwest 210 242 24,000  Level Toronto Center
Sun 05:12:07 PM 44.4667 -76.6000 227° Southwest 210 242 24,000  Level Toronto Center
Sun 05:12:38 PM 44.4500 -76.6500 245° Southwest 210 242 24,000  Level Montreal Center
Sun 05:13:38 PM 44.4000 -76.7167 224° Southwest 210 242 24,000  Level Montreal Center
Sun 05:14:38 PM 44.3667 -76.7667 227° Southwest 210 242 24,000  Level Montreal Center
Sun 05:15:07 PM 44.3500 -76.7667 180° South 210 242 24,000  Level Toronto Center
Sun 05:16:07 PM 44.3000 -76.8333 224° Southwest 210 242 24,000  Level Toronto Center
Sun 05:17:07 PM 44.2667 -76.8833 227° Southwest 210 242 24,000  Level Toronto Center
Sun 05:18:07 PM 44.2167 -76.9500 224° Southwest 210 242 24,000  Level Toronto Center
Sun 05:19:06 PM 44.1833 -77.0000 227° Southwest 210 242 24,000  Level Toronto Center
Sun 05:20:06 PM 44.1333 -77.0500 216° Southwest 210 242 24,000  Level Toronto Center
Sun 05:21:06 PM 44.1000 -77.1167 235° Southwest 210 242 24,000  Level Toronto Center
Sun 05:22:07 PM 44.0500 -77.1667 216° Southwest 210 242 24,000  Level Toronto Center
Sun 05:23:06 PM 44.0000 -77.2500 230° Southwest 210 242 24,000  Level Toronto Center
Sun 05:24:06 PM 43.9667 -77.3000 227° Southwest 210 242 24,000  Level Toronto Center
Sun 05:25:06 PM 43.9333 -77.3667 235° Southwest 210 242 24,000  Level Toronto Center
Sun 05:26:07 PM 43.9333 -77.4333 270° West 190 219 24,000  Level Toronto Center
Sun 05:27:07 PM 43.9167 -77.5000 251° West 190 219 24,000  Level Toronto Center
Sun 05:28:07 PM 43.9000 -77.5667 251° West 190 219 24,000 -150 Level Toronto Center
Sun 05:29:07 PM 43.8833 -77.6167 245° Southwest 190 219 23,700 -700 Descending Toronto Center
Sun 05:30:07 PM 43.8500 -77.7167 245° Southwest 200 230 22,600 -1,100 Descending Toronto Center
Sun 05:31:07 PM 43.8333 -77.7833 251° West 210 242 21,500 -1,150 Descending Toronto Center
Sun 05:32:07 PM 43.8167 -77.8833 257° West 220 253 20,300 -1,200 Descending Toronto Center
Sun 05:33:07 PM 43.7833 -77.9500 235° Southwest 230 265 19,100 -1,350 Descending Toronto Center
Sun 05:34:07 PM 43.7667 -78.0333 255° West 230 265 17,600 -1,250 Descending Toronto Center
Sun 05:35:07 PM 43.7500 -78.1167 255° West 230 265 16,600 -1,100 Descending Toronto Center
Sun 05:36:07 PM 43.7333 -78.2000 255° West 240 276 15,400 -1,250 Descending Toronto Center
Sun 05:37:07 PM 43.7000 -78.3000 245° Southwest 250 288 14,100 -1,300 Descending Toronto Center
Sun 05:38:07 PM 43.7000 -78.3833 270° West 250 288 12,800 -1,350 Descending Toronto Center
Sun 05:39:07 PM 43.6833 -78.4833 257° West 250 288 11,400 -1,300 Descending Toronto Center
Sun 05:40:07 PM 43.7000 -78.5667 285° West 240 276 10,200 -1,250 Descending Toronto Center
Sun 05:41:07 PM 43.6833 -78.6667 257° West 240 276 8,900 -1,250 Descending Toronto Center
Sun 05:42:07 PM 43.6833 -78.7500 270° West 240 276 7,700 -1,200 Descending Toronto Center
Sun 05:43:07 PM 43.6667 -78.8500 257° West 230 265 6,500 -1,200 Descending Toronto Center
Sun 05:44:07 PM 43.6667 -78.9333 270° West 220 253 5,300 -1,050 Descending Toronto Center
Sun 05:45:07 PM 43.6667 -79.0167 270° West 220 253 4,400 -733 Descending Toronto Center
Sun 05:47:07 PM 43.6500 -79.1667 261° West 200 230 3,100 -600 Descending Toronto Center
Sun 05:48:07 PM 43.6333 -79.2167 245° Southwest 160 184 2,600 -550 Descending Toronto Center
Sun 05:49:07 PM 43.6333 -79.2833 270° West 150 173 2,000 -750 Descending Toronto Center
Sun 05:50:07 PM 43.6333 -79.3333 270° West 130 150 1,100 -750 Descending Toronto Center
Sun 05:51:07 PM 43.6167 -79.3833 245° Southwest 110 127 500 -600 Descending Toronto Center

Login

Don't have an account? Register now (free) for customized features, flight alerts, and more!